Time;durP1;ratioP1;P1;durP2;ratioP2;P2;SDS_P1;SDS_P2;PMS_P1;PMS_P2;Temp;Humidity;BMP_temperature;BMP_pressure;BME280_temperature;BME280_humidity;BME280_pressure;Samples;Min_cycle;Max_cycle;Signal;HPM_P1;HPM_P2
2023/07/31 00:01:29;;;;;;;;;;;21.70;68.20;;;;;;5031945;28;19991;-54
2023/07/31 00:03:54;;;;;;;;;;;21.70;68.20;;;;;;5029026;28;19922;-54
2023/07/31 00:06:20;;;;;;;;;;;21.70;68.20;;;;;;5031884;28;19928;-54
2023/07/31 00:08:45;;;;;;;;;;;21.70;68.20;;;;;;5031674;28;19917;-54
2023/07/31 00:11:11;;;;;;;;;;;21.70;68.20;;;;;;5032660;28;19956;-54
2023/07/31 00:13:36;;;;;;;;;;;21.70;68.20;;;;;;5031048;28;19967;-55
2023/07/31 00:16:02;;;;;;;;;;;21.60;68.10;;;;;;5031895;28;19962;-54
2023/07/31 00:18:27;;;;;;;;;;;21.60;68.10;;;;;;5030889;28;19921;-54
2023/07/31 00:20:52;;;;;;;;;;;21.70;68.20;;;;;;5029994;28;19913;-54
2023/07/31 00:23:18;;;;;;;;;;;21.70;68.20;;;;;;5031539;28;19917;-54
2023/07/31 00:25:43;;;;;;;;;;;21.70;68.10;;;;;;5031689;28;19910;-54
2023/07/31 00:28:09;;;;;;;;;;;21.60;68.10;;;;;;5031193;28;20001;-54
2023/07/31 00:30:34;;;;;;;;;;;21.60;68.10;;;;;;5030216;28;19921;-55
2023/07/31 00:33:00;;;;;;;;;;;21.60;68.00;;;;;;5027587;28;19920;-54
2023/07/31 00:35:25;;;;;;;;;;;21.60;68.10;;;;;;5031660;28;19913;-54
2023/07/31 00:37:51;;;;;;;;;;;21.70;68.10;;;;;;5031482;28;19948;-54
2023/07/31 00:40:16;;;;;;;;;;;21.60;68.00;;;;;;5031756;28;19909;-55
2023/07/31 00:42:42;;;;;;;;;;;21.60;68.00;;;;;;5044711;28;19928;-54
2023/07/31 00:45:07;;;;;;;;;;;21.60;68.00;;;;;;5042025;28;19917;-54
2023/07/31 00:47:33;;;;;;;;;;;21.60;68.00;;;;;;5033799;28;19925;-54
2023/07/31 00:49:58;;;;;;;;;;;21.70;68.00;;;;;;5035042;28;20350;-54
2023/07/31 00:52:23;;;;;;;;;;;21.60;67.70;;;;;;5033773;28;19916;-54
2023/07/31 00:54:49;;;;;;;;;;;21.60;67.90;;;;;;5045474;28;19944;-54
2023/07/31 00:57:14;;;;;;;;;;;21.60;67.80;;;;;;5035090;28;19909;-54
2023/07/31 00:59:40;;;;;;;;;;;21.60;67.90;;;;;;5034423;28;20388;-54
2023/07/31 01:02:05;;;;;;;;;;;21.50;67.50;;;;;;5033691;28;19909;-54
2023/07/31 01:04:31;;;;;;;;;;;21.60;67.70;;;;;;5034737;28;19949;-54
2023/07/31 01:07:11;;;;;;;;;;;21.60;67.80;;;;;;5034594;28;19936;-54
2023/07/31 01:09:41;;;;;;;;;;;21.50;67.60;;;;;;5034630;28;19916;-55
2023/07/31 01:12:06;;;;;;;;;;;21.60;67.60;;;;;;5017711;28;19909;-54
2023/07/31 01:14:32;;;;;;;;;;;21.50;67.60;;;;;;5034148;28;19909;-54
2023/07/31 01:16:57;;;;;;;;;;;21.50;67.60;;;;;;5033221;28;19986;-54
2023/07/31 01:19:23;;;;;;;;;;;21.50;67.50;;;;;;5033034;28;19921;-53
2023/07/31 01:22:07;;;;;;;;;;;21.50;67.50;;;;;;5034673;28;19917;-54
2023/07/31 01:24:41;;;;;;;;;;;21.60;67.50;;;;;;5017074;28;20377;-54
2023/07/31 01:27:10;;;;;;;;;;;21.50;67.30;;;;;;5016983;28;19944;-54
2023/07/31 01:29:47;;;;;;;;;;;21.50;67.40;;;;;;5031843;28;19917;-54
2023/07/31 01:32:12;;;;;;;;;;;21.50;67.50;;;;;;5028735;28;19920;-54
2023/07/31 01:34:38;;;;;;;;;;;21.50;67.50;;;;;;5033767;28;19917;-54
2023/07/31 01:37:03;;;;;;;;;;;21.50;67.50;;;;;;5032082;28;19956;-54
2023/07/31 01:39:29;;;;;;;;;;;21.50;67.60;;;;;;5042351;28;19916;-54
2023/07/31 01:41:54;;;;;;;;;;;21.50;67.60;;;;;;5043804;28;19917;-54
2023/07/31 01:44:20;;;;;;;;;;;21.50;67.70;;;;;;5033536;28;19913;-54
2023/07/31 01:46:45;;;;;;;;;;;21.50;67.70;;;;;;5032193;28;19913;-53
2023/07/31 01:49:10;;;;;;;;;;;21.50;67.80;;;;;;5033893;28;19963;-54
2023/07/31 01:51:36;;;;;;;;;;;21.50;67.80;;;;;;5034338;28;19913;-54
2023/07/31 01:54:01;;;;;;;;;;;21.50;67.80;;;;;;5033158;28;20387;-54
2023/07/31 01:56:27;;;;;;;;;;;21.40;67.70;;;;;;5026810;28;19913;-54
2023/07/31 01:58:52;;;;;;;;;;;21.50;67.80;;;;;;5030728;28;19920;-54
2023/07/31 02:01:18;;;;;;;;;;;21.50;67.80;;;;;;5033798;28;19924;-54
2023/07/31 02:03:43;;;;;;;;;;;21.50;67.90;;;;;;5033920;28;20020;-54
2023/07/31 02:06:09;;;;;;;;;;;21.50;68.00;;;;;;5033984;28;19913;-54
2023/07/31 02:08:34;;;;;;;;;;;21.40;67.90;;;;;;5045764;28;19912;-54
2023/07/31 02:11:00;;;;;;;;;;;21.40;67.90;;;;;;5041470;28;19917;-54
2023/07/31 02:13:25;;;;;;;;;;;21.40;67.90;;;;;;5022733;28;19913;-54
2023/07/31 02:15:51;;;;;;;;;;;21.40;67.90;;;;;;5014118;28;19996;-54
2023/07/31 02:18:16;;;;;;;;;;;21.40;67.90;;;;;;5027787;28;19916;-53
2023/07/31 02:20:41;;;;;;;;;;;21.40;67.90;;;;;;5045757;28;19919;-55
2023/07/31 02:23:07;;;;;;;;;;;21.40;67.90;;;;;;5033482;28;19944;-54
2023/07/31 02:25:32;;;;;;;;;;;21.40;67.90;;;;;;5033659;28;20016;-54
2023/07/31 02:27:58;;;;;;;;;;;21.40;67.90;;;;;;5029519;28;20176;-55
2023/07/31 02:30:23;;;;;;;;;;;21.40;68.00;;;;;;5033476;28;19924;-54
2023/07/31 02:32:49;;;;;;;;;;;21.40;67.90;;;;;;5032158;28;19967;-54
2023/07/31 02:35:15;;;;;;;;;;;21.40;67.90;;;;;;5033299;28;19910;-54
2023/07/31 02:37:43;;;;;;;;;;;21.40;67.90;;;;;;5032979;28;19914;-55
2023/07/31 02:40:09;;;;;;;;;;;21.40;68.00;;;;;;5029682;28;19921;-54
2023/07/31 02:42:35;;;;;;;;;;;21.40;68.00;;;;;;5041709;28;20303;-54
2023/07/31 02:45:00;;;;;;;;;;;21.40;68.10;;;;;;5033255;28;19959;-53
2023/07/31 02:47:26;;;;;;;;;;;21.40;68.30;;;;;;5032948;28;19984;-54
2023/07/31 02:49:51;;;;;;;;;;;21.40;68.20;;;;;;5033273;28;19959;-54
2023/07/31 02:52:16;;;;;;;;;;;21.40;68.20;;;;;;5032691;28;19920;-53
2023/07/31 02:54:42;;;;;;;;;;;21.40;68.30;;;;;;5015066;28;19913;-54
2023/07/31 02:57:07;;;;;;;;;;;21.40;68.40;;;;;;5030680;28;19921;-55
2023/07/31 02:59:33;;;;;;;;;;;21.30;68.40;;;;;;5031758;28;19917;-54
2023/07/31 03:01:58;;;;;;;;;;;21.30;68.40;;;;;;5033059;28;20326;-54
2023/07/31 03:04:24;;;;;;;;;;;21.30;69.30;;;;;;5032625;28;20361;-54
2023/07/31 03:06:49;;;;;;;;;;;21.40;68.50;;;;;;5035124;28;20424;-54
2023/07/31 03:09:15;;;;;;;;;;;21.40;68.60;;;;;;5038353;28;19912;-54
2023/07/31 03:11:40;;;;;;;;;;;21.40;68.60;;;;;;5030071;28;19913;-54
2023/07/31 03:14:06;;;;;;;;;;;21.30;68.50;;;;;;5030640;28;20012;-54
2023/07/31 03:16:31;;;;;;;;;;;21.40;68.60;;;;;;5032440;28;19917;-53
2023/07/31 03:18:57;;;;;;;;;;;21.30;68.70;;;;;;5051955;28;19909;-54
2023/07/31 03:21:22;;;;;;;;;;;21.30;68.80;;;;;;5052267;28;19939;-54
2023/07/31 03:23:48;;;;;;;;;;;21.30;68.80;;;;;;5032809;28;20022;-54
2023/07/31 03:26:13;;;;;;;;;;;21.30;68.90;;;;;;5030554;28;20011;-54
2023/07/31 03:28:39;;;;;;;;;;;21.30;69.00;;;;;;5031534;28;19913;-54
2023/07/31 03:31:04;;;;;;;;;;;21.30;68.90;;;;;;5032407;28;19959;-54
2023/07/31 03:33:30;;;;;;;;;;;21.30;69.00;;;;;;5032206;28;19955;-54
2023/07/31 03:35:55;;;;;;;;;;;21.30;69.00;;;;;;5032239;28;19913;-54
2023/07/31 03:38:21;;;;;;;;;;;21.30;69.00;;;;;;5031453;28;19945;-54
2023/07/31 03:40:46;;;;;;;;;;;21.30;69.10;;;;;;5028104;28;19913;-54
2023/07/31 03:43:12;;;;;;;;;;;21.30;69.10;;;;;;5031948;28;19913;-53
2023/07/31 03:45:37;;;;;;;;;;;21.30;69.10;;;;;;5032199;28;19909;-54
2023/07/31 03:48:03;;;;;;;;;;;21.30;69.20;;;;;;5030621;28;19925;-54
2023/07/31 03:50:28;;;;;;;;;;;21.30;69.30;;;;;;5030889;28;19917;-54
2023/07/31 03:52:54;;;;;;;;;;;21.30;69.30;;;;;;5034696;28;19920;-54
2023/07/31 03:55:21;;;;;;;;;;;21.30;69.40;;;;;;5008956;28;19920;-54
2023/07/31 03:57:47;;;;;;;;;;;21.30;69.40;;;;;;5011432;28;20031;-54
2023/07/31 04:00:12;;;;;;;;;;;21.30;69.40;;;;;;5025737;28;20000;-55
2023/07/31 04:02:38;;;;;;;;;;;21.30;69.30;;;;;;5029773;28;20020;-54
2023/07/31 04:05:03;;;;;;;;;;;21.20;69.40;;;;;;5040806;28;19917;-54
2023/07/31 04:07:28;;;;;;;;;;;21.30;69.50;;;;;;5046951;28;19928;-53
2023/07/31 04:09:54;;;;;;;;;;;21.20;69.40;;;;;;5031669;28;19963;-55
2023/07/31 04:12:19;;;;;;;;;;;21.30;69.60;;;;;;5031791;28;19959;-54
2023/07/31 04:14:45;;;;;;;;;;;21.20;69.50;;;;;;5013346;28;19909;-54
2023/07/31 04:17:10;;;;;;;;;;;21.20;69.40;;;;;;5029742;28;19913;-54
2023/07/31 04:19:36;;;;;;;;;;;21.20;69.50;;;;;;5016089;28;20001;-54
2023/07/31 04:22:01;;;;;;;;;;;21.20;69.40;;;;;;5035719;28;19909;-54
2023/07/31 04:24:27;;;;;;;;;;;21.30;69.50;;;;;;5033766;28;19917;-54
2023/07/31 04:26:52;;;;;;;;;;;21.20;69.40;;;;;;5035816;28;19913;-54
2023/07/31 04:29:18;;;;;;;;;;;21.20;69.60;;;;;;5017092;28;19913;-54
2023/07/31 04:31:43;;;;;;;;;;;21.30;69.60;;;;;;5033670;28;20348;-54
2023/07/31 04:34:09;;;;;;;;;;;21.20;69.60;;;;;;5035638;28;19913;-53
2023/07/31 04:36:34;;;;;;;;;;;21.20;69.70;;;;;;5034269;28;19909;-54
2023/07/31 04:39:00;;;;;;;;;;;21.20;69.60;;;;;;5033523;28;20286;-53
2023/07/31 04:41:25;;;;;;;;;;;21.20;69.80;;;;;;5035374;28;19944;-55
2023/07/31 04:43:51;;;;;;;;;;;21.20;69.80;;;;;;5033106;28;19913;-54
2023/07/31 04:46:16;;;;;;;;;;;21.20;69.90;;;;;;5040393;28;20032;-54
2023/07/31 04:48:42;;;;;;;;;;;21.20;69.80;;;;;;5054858;28;19967;-54
2023/07/31 04:51:07;;;;;;;;;;;21.20;70.00;;;;;;5042065;28;19913;-54
2023/07/31 04:53:33;;;;;;;;;;;21.20;69.90;;;;;;5033142;28;20044;-53
2023/07/31 04:55:58;;;;;;;;;;;21.20;70.00;;;;;;5035061;28;20129;-54
2023/07/31 04:58:23;;;;;;;;;;;21.20;70.10;;;;;;5032733;28;19967;-54
2023/07/31 05:00:49;;;;;;;;;;;21.20;70.20;;;;;;5035201;28;19920;-54
2023/07/31 05:03:14;;;;;;;;;;;21.20;70.30;;;;;;5034960;28;19959;-54
2023/07/31 05:05:40;;;;;;;;;;;21.20;70.40;;;;;;5033013;28;20018;-54
2023/07/31 05:08:05;;;;;;;;;;;21.10;70.30;;;;;;5034180;28;20000;-54
2023/07/31 05:10:31;;;;;;;;;;;21.20;70.40;;;;;;5038305;28;20364;-54
2023/07/31 05:12:56;;;;;;;;;;;21.20;70.30;;;;;;5032960;28;20351;-54
2023/07/31 05:15:22;;;;;;;;;;;21.20;70.30;;;;;;5046726;28;19919;-54
2023/07/31 05:17:47;;;;;;;;;;;21.20;70.20;;;;;;5037883;28;19924;-54
2023/07/31 05:20:14;;;;;;;;;;;21.20;70.20;;;;;;5032188;28;19924;-53
2023/07/31 05:22:40;;;;;;;;;;;21.20;70.30;;;;;;5033358;28;19956;-53
2023/07/31 05:25:05;;;;;;;;;;;21.20;70.30;;;;;;5034629;28;20373;-53
2023/07/31 05:27:31;;;;;;;;;;;21.20;70.30;;;;;;5031207;28;19921;-54
2023/07/31 05:29:56;;;;;;;;;;;21.20;70.30;;;;;;5032819;28;19917;-54
2023/07/31 05:32:22;;;;;;;;;;;21.20;70.20;;;;;;5036827;28;19951;-54
2023/07/31 05:34:47;;;;;;;;;;;21.20;70.30;;;;;;5032162;28;20373;-54
2023/07/31 05:37:13;;;;;;;;;;;21.20;70.30;;;;;;5034570;28;19967;-53
2023/07/31 05:39:38;;;;;;;;;;;21.20;70.40;;;;;;5034407;28;19913;-53
2023/07/31 05:42:04;;;;;;;;;;;21.20;70.60;;;;;;5034799;28;19917;-54
2023/07/31 05:44:30;;;;;;;;;;;21.10;70.50;;;;;;5031906;28;20015;-55
2023/07/31 05:46:55;;;;;;;;;;;21.20;71.40;;;;;;5033939;28;20388;-53
2023/07/31 05:49:21;;;;;;;;;;;21.20;70.70;;;;;;5030588;28;19921;-55
2023/07/31 05:51:46;;;;;;;;;;;21.20;70.80;;;;;;5034089;28;19979;-57
2023/07/31 05:54:11;;;;;;;;;;;21.20;70.80;;;;;;5034012;28;19917;-54
2023/07/31 05:56:37;;;;;;;;;;;21.20;70.80;;;;;;5034627;28;19917;-54
2023/07/31 05:59:02;;;;;;;;;;;21.20;70.90;;;;;;5031927;28;19913;-54
2023/07/31 06:01:28;;;;;;;;;;;21.20;70.90;;;;;;5028668;28;19918;-54
2023/07/31 06:03:53;;;;;;;;;;;21.20;71.00;;;;;;5032048;28;19924;-54
2023/07/31 06:06:19;;;;;;;;;;;21.10;70.90;;;;;;5034006;28;19913;-54
2023/07/31 06:08:44;;;;;;;;;;;21.10;71.00;;;;;;5031104;28;19917;-54
2023/07/31 06:11:10;;;;;;;;;;;21.10;71.20;;;;;;5028624;28;19972;-54
2023/07/31 06:13:35;;;;;;;;;;;21.10;71.30;;;;;;5032280;28;19917;-54
2023/07/31 06:16:04;;;;;;;;;;;21.10;71.20;;;;;;5033136;28;19910;-54
2023/07/31 06:18:31;;;;;;;;;;;21.10;71.30;;;;;;5022098;28;20048;-54
2023/07/31 06:20:56;;;;;;;;;;;21.10;71.20;;;;;;5018472;28;19996;-54
2023/07/31 06:23:22;;;;;;;;;;;21.10;71.30;;;;;;5028770;28;19996;-54
2023/07/31 06:25:47;;;;;;;;;;;21.10;71.30;;;;;;5038428;28;19920;-55
2023/07/31 06:28:13;;;;;;;;;;;21.20;71.50;;;;;;5032140;28;19917;-54
2023/07/31 06:30:38;;;;;;;;;;;21.10;71.50;;;;;;5030691;28;19963;-54
2023/07/31 06:33:03;;;;;;;;;;;21.10;71.60;;;;;;5031093;28;20016;-54
2023/07/31 06:35:29;;;;;;;;;;;21.10;71.70;;;;;;5033379;28;19917;-54
2023/07/31 06:37:54;;;;;;;;;;;21.10;71.80;;;;;;5014542;28;19992;-54
2023/07/31 06:40:20;;;;;;;;;;;21.10;71.70;;;;;;5031932;28;19916;-54
2023/07/31 06:42:45;;;;;;;;;;;21.10;71.70;;;;;;5031542;28;19924;-54
2023/07/31 06:45:11;;;;;;;;;;;21.10;71.70;;;;;;5032808;28;19952;-55
2023/07/31 06:47:36;;;;;;;;;;;21.20;71.90;;;;;;5032914;28;19921;-54
2023/07/31 06:50:02;;;;;;;;;;;21.10;71.70;;;;;;5031231;28;19971;-54
2023/07/31 06:52:27;;;;;;;;;;;21.10;71.60;;;;;;5031658;28;19913;-54
2023/07/31 06:55:03;;;;;;;;;;;21.20;71.70;;;;;;5024589;28;19917;-55
2023/07/31 06:57:29;;;;;;;;;;;21.20;71.60;;;;;;5021015;28;19921;-54
2023/07/31 06:59:54;;;;;;;;;;;21.20;71.40;;;;;;5030692;28;20306;-54
2023/07/31 07:02:20;;;;;;;;;;;21.30;71.60;;;;;;5028898;28;19913;-54
2023/07/31 07:04:45;;;;;;;;;;;21.30;71.50;;;;;;5031109;28;19914;-54
2023/07/31 07:07:11;;;;;;;;;;;21.30;71.50;;;;;;5031991;28;20361;-55
2023/07/31 07:09:37;;;;;;;;;;;21.20;71.50;;;;;;5033817;28;19928;-54
2023/07/31 07:12:02;;;;;;;;;;;21.30;71.60;;;;;;5031228;28;20047;-54
2023/07/31 07:14:27;;;;;;;;;;;21.20;71.60;;;;;;5035659;28;19959;-54
2023/07/31 07:16:53;;;;;;;;;;;21.20;71.60;;;;;;5031701;28;20441;-55
2023/07/31 07:19:18;;;;;;;;;;;21.20;71.60;;;;;;5029309;28;20333;-54
2023/07/31 07:21:44;;;;;;;;;;;21.30;71.90;;;;;;5038049;28;20339;-54
2023/07/31 07:24:09;;;;;;;;;;;21.20;71.60;;;;;;5029967;28;19988;-55
2023/07/31 07:26:35;;;;;;;;;;;21.20;71.60;;;;;;5028676;28;19935;-54
2023/07/31 07:29:02;;;;;;;;;;;21.30;71.70;;;;;;5028642;28;19917;-54
2023/07/31 07:31:27;;;;;;;;;;;21.30;71.80;;;;;;5023169;28;20393;-54
2023/07/31 07:33:53;;;;;;;;;;;21.30;71.80;;;;;;5026529;28;19964;-54
2023/07/31 07:36:19;;;;;;;;;;;21.30;71.60;;;;;;5028675;28;19917;-54
2023/07/31 07:38:44;;;;;;;;;;;21.30;71.80;;;;;;5026736;28;19960;-55
2023/07/31 07:41:09;;;;;;;;;;;21.30;71.80;;;;;;5027479;28;19971;-54
2023/07/31 07:43:35;;;;;;;;;;;21.30;71.90;;;;;;5030147;28;19913;-54
2023/07/31 07:46:00;;;;;;;;;;;21.20;72.60;;;;;;5030833;28;19909;-55
2023/07/31 07:48:26;;;;;;;;;;;21.20;71.90;;;;;;5022653;28;19953;-54
2023/07/31 07:50:51;;;;;;;;;;;21.30;72.00;;;;;;5029206;28;19917;-53
2023/07/31 07:53:17;;;;;;;;;;;21.20;71.90;;;;;;5031146;28;19909;-55
2023/07/31 07:55:42;;;;;;;;;;;21.30;72.00;;;;;;5030589;28;19913;-54
2023/07/31 07:58:08;;;;;;;;;;;21.30;72.00;;;;;;5026296;28;19938;-53
2023/07/31 08:00:33;;;;;;;;;;;21.30;72.20;;;;;;5028158;28;19932;-54
2023/07/31 08:02:58;;;;;;;;;;;21.20;72.00;;;;;;5027432;28;19913;-55
2023/07/31 08:05:24;;;;;;;;;;;21.20;72.10;;;;;;5023692;28;19921;-55
2023/07/31 08:07:50;;;;;;;;;;;21.30;72.20;;;;;;5027994;28;20030;-53
2023/07/31 08:10:15;;;;;;;;;;;21.30;72.10;;;;;;5028450;28;20527;-55
2023/07/31 08:12:41;;;;;;;;;;;21.30;72.90;;;;;;5028378;28;19917;-54
2023/07/31 08:15:06;;;;;;;;;;;21.30;72.20;;;;;;5029816;28;19921;-53
2023/07/31 08:17:32;;;;;;;;;;;21.30;72.20;;;;;;5030925;28;19909;-55
2023/07/31 08:19:58;;;;;;;;;;;21.30;72.30;;;;;;5029651;28;19916;-54
2023/07/31 08:22:23;;;;;;;;;;;21.20;72.30;;;;;;5029689;28;19928;-54
2023/07/31 08:24:49;;;;;;;;;;;21.30;72.60;;;;;;5027451;28;20384;-54
2023/07/31 08:27:14;;;;;;;;;;;21.30;72.50;;;;;;5027965;28;19967;-54
2023/07/31 08:29:40;;;;;;;;;;;21.30;72.40;;;;;;5028055;28;19975;-54
2023/07/31 08:32:05;;;;;;;;;;;21.30;72.50;;;;;;5031401;28;19947;-54
2023/07/31 08:34:31;;;;;;;;;;;21.30;72.50;;;;;;5013592;28;19913;-55
2023/07/31 08:36:56;;;;;;;;;;;21.30;72.50;;;;;;5031488;28;20415;-54
2023/07/31 08:39:22;;;;;;;;;;;21.30;72.50;;;;;;5031087;28;20328;-54
2023/07/31 08:41:47;;;;;;;;;;;21.30;72.60;;;;;;5031490;28;20468;-54
2023/07/31 08:44:13;;;;;;;;;;;21.20;72.50;;;;;;5026655;28;19932;-54
2023/07/31 08:46:38;;;;;;;;;;;21.30;72.60;;;;;;5013583;28;20039;-54
2023/07/31 08:49:04;;;;;;;;;;;21.30;72.50;;;;;;5033658;28;19924;-54
2023/07/31 08:51:29;;;;;;;;;;;21.30;72.50;;;;;;5046025;28;19925;-54
2023/07/31 08:53:55;;;;;;;;;;;21.30;72.30;;;;;;5029374;28;19913;-54
2023/07/31 08:56:20;;;;;;;;;;;21.30;72.40;;;;;;5031164;28;20288;-54
2023/07/31 08:58:46;;;;;;;;;;;21.30;72.40;;;;;;5010894;28;19963;-53
2023/07/31 09:01:11;;;;;;;;;;;21.30;72.70;;;;;;5027952;28;19920;-54
2023/07/31 09:03:37;;;;;;;;;;;21.30;72.70;;;;;;5030852;28;19920;-54
2023/07/31 09:06:04;;;;;;;;;;;21.30;72.80;;;;;;5030618;28;19913;-54
2023/07/31 09:08:30;;;;;;;;;;;21.30;72.80;;;;;;5032917;28;19952;-54
2023/07/31 09:10:57;;;;;;;;;;;21.30;72.70;;;;;;5016843;28;19932;-54
2023/07/31 09:13:22;;;;;;;;;;;21.30;72.80;;;;;;5030001;28;20012;-54
2023/07/31 09:15:48;;;;;;;;;;;21.30;72.90;;;;;;5026111;28;20397;-54
2023/07/31 09:18:19;;;;;;;;;;;21.30;72.80;;;;;;5028880;28;19944;-54
2023/07/31 09:20:44;;;;;;;;;;;21.30;72.60;;;;;;5039691;28;19994;-54
2023/07/31 09:23:10;;;;;;;;;;;21.30;72.60;;;;;;5030265;28;20336;-53
2023/07/31 09:25:36;;;;;;;;;;;21.30;72.50;;;;;;5029047;28;20000;-55
2023/07/31 09:28:06;;;;;;;;;;;21.30;72.70;;;;;;5033494;28;20007;-54
2023/07/31 09:30:32;;;;;;;;;;;21.30;72.60;;;;;;5032924;28;19923;-55
2023/07/31 09:33:02;;;;;;;;;;;21.30;72.70;;;;;;5031577;28;19913;-55
2023/07/31 09:35:28;;;;;;;;;;;21.30;72.80;;;;;;5033701;28;19913;-55
2023/07/31 09:37:55;;;;;;;;;;;21.30;72.70;;;;;;5033836;28;19939;-55
2023/07/31 09:40:24;;;;;;;;;;;21.30;72.80;;;;;;5030909;28;20007;-55
2023/07/31 09:42:50;;;;;;;;;;;21.30;72.80;;;;;;5030854;28;20278;-55
2023/07/31 09:45:15;;;;;;;;;;;21.30;72.90;;;;;;5030463;28;19936;-55
2023/07/31 09:47:45;;;;;;;;;;;21.30;72.80;;;;;;5024795;28;19925;-54
2023/07/31 09:50:11;;;;;;;;;;;21.40;72.60;;;;;;5028921;28;19925;-54
2023/07/31 09:52:38;;;;;;;;;;;21.40;72.80;;;;;;5033675;28;20258;-54
2023/07/31 09:55:03;;;;;;;;;;;21.30;72.80;;;;;;5032869;28;19960;-54
2023/07/31 09:57:29;;;;;;;;;;;21.30;72.90;;;;;;5029550;28;19958;-55
2023/07/31 09:59:54;;;;;;;;;;;21.30;73.00;;;;;;5030240;28;19913;-54
2023/07/31 10:02:23;;;;;;;;;;;21.40;73.10;;;;;;5026336;28;20292;-55
2023/07/31 10:04:49;;;;;;;;;;;21.30;73.00;;;;;;5033742;28;19913;-54
2023/07/31 10:07:15;;;;;;;;;;;21.30;73.10;;;;;;5033702;28;20027;-53
2023/07/31 10:09:40;;;;;;;;;;;21.30;73.10;;;;;;5033728;28;19913;-55
2023/07/31 10:12:06;;;;;;;;;;;21.30;72.80;;;;;;5014040;28;19920;-56
2023/07/31 10:14:31;;;;;;;;;;;21.40;73.10;;;;;;5013460;28;19909;-55
2023/07/31 10:16:57;;;;;;;;;;;21.30;73.00;;;;;;5032364;28;19913;-54
2023/07/31 10:19:22;;;;;;;;;;;21.30;73.10;;;;;;5030847;28;19921;-55
2023/07/31 10:21:48;;;;;;;;;;;21.40;73.10;;;;;;5024879;28;19918;-54
2023/07/31 10:24:13;;;;;;;;;;;21.30;73.90;;;;;;5031198;28;20413;-54
2023/07/31 10:26:39;;;;;;;;;;;21.40;73.10;;;;;;5012580;28;19920;-54
2023/07/31 10:29:05;;;;;;;;;;;21.40;73.20;;;;;;5031850;28;20365;-55
2023/07/31 10:31:30;;;;;;;;;;;21.30;73.10;;;;;;5031371;28;19928;-54
2023/07/31 10:33:57;;;;;;;;;;;21.40;73.10;;;;;;5032882;28;19909;-55
2023/07/31 10:36:22;;;;;;;;;;;21.40;72.90;;;;;;5033265;28;19932;-54
2023/07/31 10:38:51;;;;;;;;;;;21.40;72.80;;;;;;5030524;28;19914;-54
2023/07/31 10:41:16;;;;;;;;;;;21.40;73.00;;;;;;5030206;28;20261;-54
2023/07/31 10:43:42;;;;;;;;;;;21.40;73.00;;;;;;5031982;28;19963;-54
2023/07/31 10:46:13;;;;;;;;;;;21.40;73.00;;;;;;5031949;28;20003;-54
2023/07/31 10:48:41;;;;;;;;;;;21.40;73.20;;;;;;5031863;28;20035;-55
2023/07/31 10:51:10;;;;;;;;;;;21.30;73.40;;;;;;5030264;28;19939;-54
2023/07/31 10:53:35;;;;;;;;;;;21.40;73.40;;;;;;5027842;28;19913;-55
2023/07/31 10:56:01;;;;;;;;;;;21.30;73.20;;;;;;5032723;28;19913;-54
2023/07/31 10:58:26;;;;;;;;;;;21.30;73.40;;;;;;5029888;28;19921;-54
2023/07/31 11:00:56;;;;;;;;;;;21.40;73.50;;;;;;5030349;28;19999;-56
2023/07/31 11:03:24;;;;;;;;;;;21.40;73.60;;;;;;5032495;28;19948;-55
2023/07/31 11:05:50;;;;;;;;;;;21.30;73.70;;;;;;5014823;28;20329;-55
2023/07/31 11:08:20;;;;;;;;;;;21.30;73.70;;;;;;5028219;28;19917;-54
2023/07/31 11:10:46;;;;;;;;;;;21.30;73.70;;;;;;5026879;28;19917;-55
2023/07/31 11:13:11;;;;;;;;;;;21.30;73.70;;;;;;5027939;28;19939;-56
2023/07/31 11:15:37;;;;;;;;;;;21.30;73.70;;;;;;5025967;28;19920;-55
2023/07/31 11:18:05;;;;;;;;;;;21.40;73.80;;;;;;5029927;28;19963;-55
2023/07/31 11:20:31;;;;;;;;;;;21.40;73.80;;;;;;5029861;28;19944;-55
2023/07/31 11:23:03;;;;;;;;;;;21.40;73.90;;;;;;5029653;28;19956;-54
2023/07/31 11:25:31;;;;;;;;;;;21.40;73.70;;;;;;5032007;28;20328;-55
2023/07/31 11:27:58;;;;;;;;;;;21.30;74.00;;;;;;5025562;28;19913;-55
2023/07/31 11:30:23;;;;;;;;;;;21.30;74.00;;;;;;5030135;28;19928;-54
2023/07/31 11:32:49;;;;;;;;;;;21.30;74.20;;;;;;5031867;28;19913;-55
2023/07/31 11:35:15;;;;;;;;;;;21.30;74.30;;;;;;5030166;28;19913;-55
2023/07/31 11:37:41;;;;;;;;;;;21.30;74.60;;;;;;5031436;28;19917;-55
2023/07/31 11:40:07;;;;;;;;;;;21.30;74.50;;;;;;5014500;28;19913;-55
2023/07/31 11:42:32;;;;;;;;;;;21.30;74.40;;;;;;5031153;28;19916;-55
2023/07/31 11:44:57;;;;;;;;;;;21.30;74.60;;;;;;5029667;28;19913;-56
2023/07/31 11:47:23;;;;;;;;;;;21.30;74.80;;;;;;5030576;28;19925;-55
2023/07/31 11:49:48;;;;;;;;;;;21.30;75.00;;;;;;5024803;28;19932;-55
2023/07/31 11:52:14;;;;;;;;;;;21.30;75.20;;;;;;5029818;28;19916;-54
2023/07/31 11:54:40;;;;;;;;;;;21.30;75.30;;;;;;5027278;28;19982;-55
2023/07/31 11:57:05;;;;;;;;;;;21.30;75.40;;;;;;5030856;28;19913;-55
2023/07/31 11:59:31;;;;;;;;;;;21.30;75.20;;;;;;5027790;28;20399;-54
2023/07/31 12:01:56;;;;;;;;;;;21.30;75.00;;;;;;5011673;28;19913;-54
2023/07/31 12:04:21;;;;;;;;;;;21.40;75.40;;;;;;5029860;28;19909;-54
2023/07/31 12:06:47;;;;;;;;;;;21.30;75.50;;;;;;5029775;28;19996;-54
2023/07/31 12:09:14;;;;;;;;;;;21.30;75.60;;;;;;5047250;28;19980;-55
2023/07/31 12:11:46;;;;;;;;;;;21.40;75.50;;;;;;5034555;28;19921;-54
2023/07/31 12:14:22;;;;;;;;;;;21.40;75.40;;;;;;5013125;28;19926;-55
2023/07/31 12:16:47;;;;;;;;;;;21.40;75.30;;;;;;5030817;28;20372;-54
2023/07/31 12:19:12;;;;;;;;;;;21.40;75.40;;;;;;5029509;28;19949;-54
2023/07/31 12:21:38;;;;;;;;;;;21.40;75.40;;;;;;5034437;28;19913;-54
2023/07/31 12:24:03;;;;;;;;;;;21.40;75.60;;;;;;5031089;28;20031;-55
2023/07/31 12:26:33;;;;;;;;;;;21.40;75.50;;;;;;5046188;28;20424;-55
2023/07/31 12:28:59;;;;;;;;;;;21.40;75.40;;;;;;5045281;28;19922;-55
2023/07/31 12:31:25;;;;;;;;;;;21.40;75.50;;;;;;5013520;28;19963;-54
2023/07/31 12:33:51;;;;;;;;;;;21.40;75.40;;;;;;5029330;28;19920;-55
2023/07/31 12:36:19;;;;;;;;;;;21.40;75.40;;;;;;5038549;28;19913;-55
2023/07/31 12:38:45;;;;;;;;;;;21.40;75.20;;;;;;5035126;28;20330;-54
2023/07/31 12:41:11;;;;;;;;;;;21.40;75.50;;;;;;5033124;28;20004;-55
2023/07/31 12:43:36;;;;;;;;;;;21.40;75.40;;;;;;5038643;28;19920;-55
2023/07/31 12:46:02;;;;;;;;;;;21.40;75.30;;;;;;5049554;28;19940;-56
2023/07/31 12:48:27;;;;;;;;;;;21.40;75.20;;;;;;5040660;28;19921;-55
2023/07/31 12:50:53;;;;;;;;;;;21.40;75.20;;;;;;5039543;28;20461;-55
2023/07/31 12:53:18;;;;;;;;;;;21.40;75.40;;;;;;5035444;28;19987;-56
2023/07/31 12:55:44;;;;;;;;;;;21.40;75.40;;;;;;5040436;28;19944;-55
2023/07/31 12:58:09;;;;;;;;;;;21.40;75.20;;;;;;5046816;28;19921;-54
2023/07/31 13:00:34;;;;;;;;;;;21.40;75.10;;;;;;5036947;28;19996;-54
2023/07/31 13:03:00;;;;;;;;;;;21.40;75.50;;;;;;5036878;28;19917;-55
2023/07/31 13:05:26;;;;;;;;;;;21.40;75.40;;;;;;5051517;28;19909;-54
2023/07/31 13:07:51;;;;;;;;;;;21.40;75.40;;;;;;5042813;28;19909;-55
2023/07/31 13:10:17;;;;;;;;;;;21.40;75.10;;;;;;5032684;28;19996;-54
2023/07/31 13:12:42;;;;;;;;;;;21.40;75.10;;;;;;5032996;28;19917;-54
2023/07/31 13:15:08;;;;;;;;;;;21.40;75.00;;;;;;5033774;28;20288;-54
2023/07/31 13:17:33;;;;;;;;;;;21.40;75.20;;;;;;5036567;28;19974;-54
2023/07/31 13:19:59;;;;;;;;;;;21.40;75.00;;;;;;5036570;28;20300;-54
2023/07/31 13:22:24;;;;;;;;;;;21.40;75.10;;;;;;5043894;28;20284;-55
2023/07/31 13:24:50;;;;;;;;;;;21.40;75.10;;;;;;5037575;28;19917;-55
2023/07/31 13:27:21;;;;;;;;;;;21.40;75.00;;;;;;5039700;28;19916;-55
2023/07/31 13:29:47;;;;;;;;;;;21.40;74.80;;;;;;5040019;28;19913;-54
2023/07/31 13:32:12;;;;;;;;;;;21.50;75.00;;;;;;5033023;28;19913;-54
2023/07/31 13:34:38;;;;;;;;;;;21.40;74.70;;;;;;5042182;28;19917;-54
2023/07/31 13:37:03;;;;;;;;;;;21.40;75.10;;;;;;5048894;28;19920;-56
2023/07/31 13:39:29;;;;;;;;;;;21.40;75.30;;;;;;5031355;28;19917;-55
2023/07/31 13:41:55;;;;;;;;;;;21.40;74.90;;;;;;5034599;28;20403;-54
2023/07/31 13:44:20;;;;;;;;;;;21.40;75.20;;;;;;5034863;28;19917;-55
2023/07/31 13:46:46;;;;;;;;;;;21.40;75.30;;;;;;5044860;28;20365;-55
2023/07/31 13:49:11;;;;;;;;;;;21.40;75.10;;;;;;5045088;28;20380;-54
2023/07/31 13:51:39;;;;;;;;;;;21.40;75.10;;;;;;5034594;28;20412;-54
2023/07/31 13:54:04;;;;;;;;;;;21.40;75.20;;;;;;5041298;28;19935;-54
2023/07/31 13:56:30;;;;;;;;;;;21.40;75.30;;;;;;5033967;28;20368;-55
2023/07/31 13:58:55;;;;;;;;;;;21.40;75.00;;;;;;5029489;28;19917;-55
2023/07/31 14:01:21;;;;;;;;;;;21.40;75.30;;;;;;5031014;28;19923;-54
2023/07/31 14:03:46;;;;;;;;;;;21.30;75.10;;;;;;5030720;28;20365;-54
2023/07/31 14:06:12;;;;;;;;;;;21.30;75.80;;;;;;5031475;28;20284;-54
2023/07/31 14:08:37;;;;;;;;;;;21.30;75.90;;;;;;5027648;28;19914;-54